createdAt,value
2022-10-11T00:13:39.146Z,6.24
2022-10-11T00:16:19.227Z,5.88
2022-10-11T00:18:52.372Z,6.04
2022-10-11T00:21:18.990Z,6.20
2022-10-11T00:23:59.165Z,6.01
2022-10-11T00:26:32.340Z,5.90
2022-10-11T00:29:07.162Z,6.02
2022-10-11T00:39:00.145Z,5.89
2022-10-11T00:41:40.194Z,5.86
2022-10-11T00:44:19.213Z,5.72
2022-10-11T00:47:06.418Z,5.60
2022-10-11T00:49:44.996Z,5.87
2022-10-11T00:52:34.192Z,5.78
2022-10-11T01:05:49.173Z,5.58
2022-10-11T01:08:23.312Z,5.44
2022-10-11T01:10:57.229Z,5.70
2022-10-11T01:13:47.176Z,5.55
2022-10-11T01:16:38.166Z,5.18
2022-10-11T01:33:29.137Z,5.21
2022-10-11T01:36:20.170Z,5.45
2022-10-11T01:39:01.046Z,5.38
2022-10-11T01:41:49.183Z,5.48
2022-10-11T01:44:25.989Z,5.71
2022-10-11T01:47:07.217Z,5.68
2022-10-11T02:00:23.166Z,5.37
2022-10-11T02:03:20.290Z,5.48
2022-10-11T02:06:10.151Z,5.56
2022-10-11T02:08:53.439Z,5.50
2022-10-11T02:11:37.166Z,5.46
2022-10-11T02:14:15.507Z,5.89
2022-10-11T02:27:14.142Z,5.65
2022-10-11T02:29:57.189Z,5.51
2022-10-11T02:32:33.123Z,5.84
2022-10-11T02:35:10.162Z,5.78
2022-10-11T02:37:53.262Z,5.82
2022-10-11T02:54:14.162Z,5.42
2022-10-11T02:56:47.211Z,5.12
2022-10-11T02:59:13.958Z,5.24
2022-10-11T03:01:54.236Z,5.69
2022-10-11T03:04:27.385Z,5.53
2022-10-11T03:06:54.123Z,5.63
2022-10-11T03:19:32.137Z,5.52
2022-10-11T03:22:12.155Z,5.12
2022-10-11T03:24:47.112Z,5.37
2022-10-11T03:27:20.213Z,5.26
2022-10-11T03:29:53.240Z,5.43
2022-10-11T03:32:19.805Z,5.47
2022-10-11T03:48:44.801Z,5.44
2022-10-11T03:51:18.196Z,5.21
2022-10-11T03:53:51.166Z,5.42
2022-10-11T03:56:24.256Z,5.47
2022-10-11T03:58:50.865Z,5.29
2022-10-11T04:15:23.179Z,5.35
2022-10-11T04:17:56.188Z,4.97
2022-10-11T04:20:22.993Z,4.96
2022-10-11T04:23:03.137Z,5.08
2022-10-11T04:25:38.498Z,4.71
2022-10-11T04:28:12.213Z,4.94
2022-10-11T04:41:23.162Z,4.45
2022-10-11T04:43:56.583Z,4.37
2022-10-11T04:46:30.150Z,4.39
2022-10-11T04:49:03.335Z,4.09
2022-10-11T04:51:40.208Z,4.01
2022-10-11T04:54:13.501Z,3.83
2022-10-11T05:07:03.122Z,3.81
2022-10-11T05:09:43.153Z,3.69
2022-10-11T05:12:16.206Z,3.75
2022-10-11T05:14:42.749Z,3.41
2022-10-11T05:17:23.174Z,3.69
2022-10-11T05:19:56.271Z,3.27
2022-10-11T05:22:31.186Z,3.21
2022-10-11T05:35:40.158Z,2.78
2022-10-11T05:38:09.050Z,2.85
2022-10-11T05:40:49.125Z,2.63
2022-10-11T05:43:22.135Z,2.52
2022-10-11T05:45:49.099Z,2.54
2022-10-11T05:48:29.179Z,2.44
2022-10-11T06:01:40.267Z,2.22
2022-10-11T06:04:13.149Z,2.19
2022-10-11T06:06:39.689Z,2.13
2022-10-11T06:09:20.145Z,2.26
2022-10-11T06:11:53.157Z,2.02
2022-10-11T06:14:19.698Z,1.98
2022-10-11T06:27:17.131Z,2.13
2022-10-11T06:29:57.162Z,1.85
2022-10-11T06:32:35.158Z,2.04
2022-10-11T06:35:08.143Z,2.06
2022-10-11T06:37:41.209Z,2.14
2022-10-11T06:40:16.162Z,1.89
2022-10-11T06:42:51.186Z,2.07
2022-10-11T06:55:39.113Z,2.27
2022-10-11T06:58:21.188Z,2.17
2022-10-11T07:00:54.255Z,2.13
2022-10-11T07:03:20.830Z,2.28
2022-10-11T07:06:07.454Z,2.21
2022-10-11T07:08:41.892Z,2.34
2022-10-11T07:21:32.111Z,2.07
2022-10-11T07:24:13.152Z,2.42
2022-10-11T07:26:46.205Z,2.50
2022-10-11T07:29:12.786Z,2.26
2022-10-11T07:31:53.144Z,2.45
2022-10-11T07:34:26.277Z,2.14
2022-10-11T07:47:15.118Z,2.19
2022-10-11T07:49:55.134Z,2.14
2022-10-11T07:52:28.273Z,2.18
2022-10-11T07:54:54.806Z,2.18
2022-10-11T07:57:35.113Z,2.11
2022-10-11T08:00:10.370Z,1.91
2022-10-11T08:02:49.245Z,1.97
2022-10-11T08:15:59.158Z,1.94
2022-10-11T08:18:34.123Z,2.11
2022-10-11T08:21:13.161Z,1.97
2022-10-11T08:23:46.442Z,1.78
2022-10-11T08:26:20.155Z,1.94
2022-10-11T08:28:53.441Z,1.88
2022-10-11T08:41:51.096Z,1.70
2022-10-11T08:45:10.082Z,1.84
2022-10-11T08:47:45.235Z,1.93
2022-10-11T08:50:26.158Z,1.97
2022-10-11T08:53:07.654Z,1.82
2022-10-11T09:10:10.146Z,1.71
2022-10-11T09:12:58.161Z,1.89
2022-10-11T09:15:52.135Z,1.59
2022-10-11T09:18:52.402Z,1.78
2022-10-11T09:21:47.138Z,1.94
2022-10-11T09:34:59.136Z,1.68
2022-10-11T09:37:43.977Z,1.76
2022-10-11T09:40:44.108Z,1.69
2022-10-11T09:43:17.824Z,1.66
2022-10-11T09:45:51.133Z,1.55
2022-10-11T09:48:32.082Z,1.58
2022-10-11T10:01:32.127Z,1.73
2022-10-11T10:04:17.652Z,1.57
2022-10-11T10:07:11.102Z,1.72
2022-10-11T10:09:51.146Z,1.69
2022-10-11T10:12:29.297Z,1.87
2022-10-11T10:29:08.152Z,1.46
2022-10-11T10:35:13.142Z,1.48
2022-10-11T10:38:01.836Z,1.51
2022-10-11T10:40:54.110Z,1.44
2022-10-11T10:43:34.519Z,1.62
2022-10-11T10:56:42.099Z,1.39
2022-10-11T10:59:51.154Z,1.40
2022-10-11T11:02:40.704Z,1.39
2022-10-11T11:05:34.361Z,1.46
2022-10-11T11:08:16.694Z,1.52
2022-10-11T11:21:31.273Z,1.59
2022-10-11T11:24:27.138Z,1.60
2022-10-11T11:27:17.209Z,1.92
2022-10-11T11:30:07.148Z,1.69
2022-10-11T11:32:56.537Z,1.61
2022-10-11T11:49:28.138Z,1.29
2022-10-11T11:52:04.259Z,1.52
2022-10-11T11:54:55.161Z,1.34
2022-10-11T11:57:48.370Z,1.42
2022-10-11T12:00:33.130Z,1.18
2022-10-11T12:03:16.022Z,1.39
2022-10-11T12:16:19.089Z,1.34
2022-10-11T12:19:08.141Z,1.27
2022-10-11T12:21:43.891Z,1.31
2022-10-11T12:24:28.135Z,1.22
2022-10-11T12:27:40.650Z,1.36
2022-10-11T12:41:32.093Z,1.61
2022-10-11T12:44:28.248Z,1.39
2022-10-11T12:47:31.616Z,1.28
2022-10-11T12:50:24.117Z,1.46
2022-10-11T12:53:17.039Z,1.49
2022-10-11T13:09:48.931Z,1.27
2022-10-11T13:12:25.895Z,1.24
2022-10-11T13:15:14.118Z,1.17
2022-10-11T13:17:47.730Z,1.20
2022-10-11T13:20:27.124Z,1.27
2022-10-11T13:23:00.461Z,1.29
2022-10-11T13:35:50.082Z,1.11
2022-10-11T13:38:35.173Z,1.16
2022-10-11T13:41:09.725Z,1.30
2022-10-11T13:43:44.152Z,1.13
2022-10-11T13:46:22.699Z,1.20
2022-10-11T13:49:07.109Z,1.07
2022-10-11T14:02:28.133Z,1.27
2022-10-11T14:05:01.337Z,1.15
2022-10-11T14:07:42.129Z,1.20
2022-10-11T14:10:20.203Z,1.32
2022-10-11T14:13:13.185Z,1.28
2022-10-11T14:30:23.506Z,1.21
2022-10-11T14:32:50.119Z,1.06
2022-10-11T14:35:30.986Z,1.15
2022-10-11T14:38:11.139Z,1.11
2022-10-11T14:40:44.176Z,1.10
2022-10-11T14:43:10.730Z,1.20
2022-10-11T14:56:08.617Z,1.12
2022-10-11T14:58:49.127Z,0.98
2022-10-11T15:01:22.337Z,0.98
2022-10-11T15:03:48.952Z,1.04
2022-10-11T15:06:36.125Z,1.00
2022-10-11T15:09:09.693Z,1.04
2022-10-11T15:22:05.110Z,1.11
2022-10-11T15:24:49.348Z,1.06
2022-10-11T15:27:24.334Z,1.39
2022-10-11T15:29:57.127Z,1.38
2022-10-11T15:32:30.156Z,1.49
2022-10-11T15:34:56.809Z,1.41
2022-10-11T15:37:39.117Z,1.53
2022-10-11T15:50:49.143Z,1.59
2022-10-11T15:53:27.572Z,1.54
2022-10-11T15:56:11.146Z,1.49
2022-10-11T15:58:44.271Z,1.45
2022-10-11T16:01:22.173Z,1.49
2022-10-11T16:03:55.205Z,1.44
2022-10-11T16:16:45.101Z,1.44
2022-10-11T16:19:26.754Z,1.66
2022-10-11T16:22:00.174Z,1.93
2022-10-11T16:24:33.138Z,1.77
2022-10-11T16:27:06.374Z,1.91
2022-10-11T16:29:33.012Z,4.97
2022-10-11T16:42:30.094Z,2.14
2022-10-11T16:45:11.117Z,2.01
2022-10-11T16:47:44.419Z,1.61
2022-10-11T16:50:19.134Z,1.65
2022-10-11T16:52:52.873Z,1.68
2022-10-11T16:55:26.137Z,1.57
2022-10-11T16:58:01.144Z,2.00
2022-10-11T17:10:49.081Z,1.67
2022-10-11T17:13:31.138Z,1.65
2022-10-11T17:16:05.734Z,1.50
2022-10-11T17:18:39.121Z,1.59
2022-10-11T17:21:15.577Z,1.59
2022-10-11T17:23:49.837Z,1.46
2022-10-11T17:37:01.101Z,1.88
2022-10-11T17:39:34.158Z,2.19
2022-10-11T17:42:00.697Z,2.40
2022-10-11T17:44:42.133Z,2.20
2022-10-11T17:47:15.347Z,2.53
2022-10-11T17:49:41.916Z,2.51
2022-10-11T18:02:39.084Z,2.92
2022-10-11T18:05:19.152Z,3.09
2022-10-11T18:07:52.430Z,2.90
2022-10-11T18:10:26.162Z,2.96
2022-10-11T18:13:03.048Z,3.01
2022-10-11T18:15:48.176Z,2.98
2022-10-11T18:18:26.213Z,3.25
2022-10-11T18:31:17.764Z,3.11
2022-10-11T18:34:01.132Z,3.15
2022-10-11T18:36:34.165Z,3.07
2022-10-11T18:39:12.159Z,3.30
2022-10-11T18:41:45.170Z,3.07
2022-10-11T18:44:21.120Z,2.97
2022-10-11T18:57:32.114Z,2.94
2022-10-11T19:00:22.465Z,2.81
2022-10-11T19:03:07.142Z,2.42
2022-10-11T19:05:40.294Z,2.61
2022-10-11T19:08:06.842Z,2.51
2022-10-11T19:24:32.144Z,2.44
2022-10-11T19:27:05.297Z,2.29
2022-10-11T19:29:39.821Z,2.15
2022-10-11T19:32:13.193Z,2.29
2022-10-11T19:34:46.107Z,2.30
2022-10-11T19:37:19.289Z,2.41
2022-10-11T19:39:54.102Z,2.26
2022-10-11T19:49:45.094Z,2.04
2022-10-11T19:52:25.115Z,2.09
2022-10-11T19:55:00.178Z,1.90
2022-10-11T19:57:33.425Z,2.17
2022-10-11T20:00:08.721Z,1.94
2022-10-11T20:02:42.114Z,2.00
2022-10-11T20:18:37.901Z,1.79
2022-10-11T20:21:07.670Z,1.77
2022-10-11T20:23:50.127Z,1.72
2022-10-11T20:26:24.634Z,1.85
2022-10-11T20:29:01.139Z,1.65
2022-10-11T20:42:54.115Z,1.78
2022-10-11T20:45:27.150Z,1.73
2022-10-11T20:47:53.701Z,1.86
2022-10-11T20:50:34.102Z,1.58
2022-10-11T20:53:07.163Z,1.51
2022-10-11T20:55:33.758Z,1.85
2022-10-11T20:58:16.118Z,1.60
2022-10-11T21:11:25.106Z,1.98
2022-10-11T21:14:03.604Z,1.97
2022-10-11T21:16:44.102Z,2.11
2022-10-11T21:19:17.158Z,2.14
2022-10-11T21:21:53.636Z,1.92
2022-10-11T21:24:27.274Z,2.11
2022-10-11T21:37:17.075Z,1.64
2022-10-11T21:39:57.834Z,1.67
2022-10-11T21:42:31.239Z,1.71
2022-10-11T21:45:04.096Z,1.71
2022-10-11T21:47:39.126Z,1.39
2022-10-11T22:03:54.098Z,1.94
2022-10-11T22:06:27.128Z,1.70
2022-10-11T22:08:53.669Z,1.87
2022-10-11T22:11:34.139Z,1.77
2022-10-11T22:14:08.890Z,1.69
2022-10-11T22:16:42.114Z,1.71
2022-10-11T22:19:17.069Z,1.81
2022-10-11T22:32:04.076Z,1.76
2022-10-11T22:34:46.154Z,1.76
2022-10-11T22:37:19.140Z,1.64
2022-10-11T22:39:45.678Z,1.69
2022-10-11T22:42:27.696Z,1.61
2022-10-11T22:45:01.302Z,1.60
2022-10-11T22:57:50.082Z,1.62
2022-10-11T23:00:30.094Z,1.48
2022-10-11T23:03:03.541Z,1.70
2022-10-11T23:05:38.104Z,1.69
2022-10-11T23:08:11.213Z,1.81
2022-10-11T23:24:25.126Z,1.75
2022-10-11T23:26:58.142Z,1.69
2022-10-11T23:29:24.702Z,1.86
2022-10-11T23:32:05.099Z,1.74
2022-10-11T23:34:38.269Z,1.73
2022-10-11T23:37:12.165Z,1.77
2022-10-11T23:39:47.226Z,1.82
2022-10-11T23:52:34.061Z,1.77
2022-10-11T23:55:10.080Z,1.92
2022-10-11T23:57:43.097Z,1.73
